Time;durP1;ratioP1;P1;durP2;ratioP2;P2;SDS_P1;SDS_P2;PMS_P1;PMS_P2;Temp;Humidity;BMP_temperature;BMP_pressure;BME280_temperature;BME280_humidity;BME280_pressure;Samples;Min_cycle;Max_cycle;Signal;HPM_P1;HPM_P2
2022/02/10 00:06:07;;;;;;;3.45;2.00;;;;;;;1.78;71.80;98621.38;5044785;28;20044;-48
2022/02/10 00:14:58;;;;;;;5.38;2.25;;;;;;;1.56;72.06;98597.81;5087634;28;20486;-50
2022/02/10 00:25:17;;;;;;;3.92;1.92;;;;;;;1.60;71.74;98610.53;5069943;27;20046;-51
2022/02/10 00:35:43;;;;;;;3.47;1.70;;;;;;;1.54;71.43;98582.44;5115148;27;20090;-51
2022/02/10 00:38:09;;;;;;;2.42;1.58;;;;;;;1.62;70.56;98600.28;5099133;27;20536;-49
2022/02/10 00:40:36;;;;;;;2.00;1.42;;;;;;;1.56;70.64;98601.22;5134573;27;20134;-49
2022/02/10 00:43:04;;;;;;;3.05;1.02;;;;;;;1.60;70.14;98592.59;5082517;27;20094;-50
2022/02/10 00:45:32;;;;;;;1.98;1.15;;;;;;;1.63;69.92;98592.53;5114791;27;20031;-50
2022/02/10 00:48:04;;;;;;;1.90;0.98;;;;;;;1.53;69.92;98585.03;5097906;27;20255;-51
2022/02/10 00:50:32;;;;;;;1.75;1.40;;;;;;;1.61;70.11;98594.31;5127453;27;20042;-53
2022/02/10 00:53:04;;;;;;;1.50;0.98;;;;;;;1.57;69.42;98584.13;5078679;28;20192;-51
2022/02/10 00:55:33;;;;;;;2.88;1.42;;;;;;;1.59;69.80;98578.09;5112462;27;20066;-52
2022/02/10 00:58:03;;;;;;;2.35;1.15;;;;;;;1.62;69.37;98583.16;5133065;27;20115;-51
2022/02/10 01:30:18;;;;;;;1.55;0.88;;;;;;;1.38;69.09;98552.84;5114174;27;20099;-53
2022/02/10 01:32:48;;;;;;;1.70;0.80;;;;;;;1.43;68.91;98558.72;5108720;27;20506;-48
2022/02/10 01:35:19;;;;;;;1.20;0.80;;;;;;;1.48;68.79;98549.25;5114931;27;20031;-50
2022/02/10 01:37:46;;;;;;;1.77;0.80;;;;;;;1.47;68.76;98549.25;5114911;27;20042;-48
2022/02/10 01:40:22;;;;;;;1.02;0.63;;;;;;;1.49;68.62;98561.19;5115221;27;20043;-52
2022/02/10 02:04:38;;;;;;;4.22;1.15;;;;;;;1.48;68.61;98522.78;5091463;27;20035;-49
2022/02/10 02:07:05;;;;;;;1.10;0.80;;;;;;;1.59;67.82;98526.03;5097511;27;20062;-51
2022/02/10 02:09:31;;;;;;;2.15;0.90;;;;;;;1.59;67.61;98516.63;5097528;27;20039;-54
2022/02/10 02:11:57;;;;;;;1.65;0.80;;;;;;;1.72;67.62;98514.72;5114539;27;20112;-53
2022/02/10 02:14:26;;;;;;;1.45;0.70;;;;;;;1.64;67.24;98509.72;5113941;27;20118;-51
2022/02/10 02:16:54;;;;;;;3.42;0.75;;;;;;;1.62;67.31;98521.69;5114471;27;20399;-53
2022/02/10 02:19:20;;;;;;;1.50;0.68;;;;;;;1.55;67.58;98512.44;5132959;27;20506;-53
2022/02/10 02:21:46;;;;;;;1.00;0.82;;;;;;;1.52;67.45;98516.75;5114068;27;20528;-51
2022/02/10 02:24:19;;;;;;;1.10;0.80;;;;;;;1.48;67.40;98500.59;5113898;27;20046;-50
2022/02/10 02:26:53;;;;;;;0.90;0.77;;;;;;;1.47;67.30;98514.25;5114195;27;20491;-50
2022/02/10 02:29:28;;;;;;;2.72;0.60;;;;;;;1.35;67.47;98499.13;5131898;27;20498;-51
2022/02/10 02:32:01;;;;;;;1.65;0.70;;;;;;;1.28;67.90;98489.84;5113978;27;20054;-52
2022/02/10 03:06:39;;;;;;;2.38;0.82;;;;;;;1.78;67.04;98463.34;5131514;28;20045;-56
2022/02/10 03:09:10;;;;;;;1.38;0.85;;;;;;;1.76;67.51;98457.41;5131515;28;20054;-55
2022/02/10 03:11:36;;;;;;;1.65;0.75;;;;;;;1.83;67.33;98453.03;5131893;28;20042;-52
2022/02/10 03:14:49;;;;;;;1.95;0.80;;;;;;;1.84;67.10;98455.53;5131314;28;20110;-50
2022/02/10 04:16:10;;;;;;;1.52;0.85;;;;;;;1.54;68.80;98410.88;5116063;27;20035;-54
2022/02/10 05:00:40;;;;;;;1.90;1.23;;;;;;;1.55;70.20;98384.38;5137236;27;20070;-55
2022/02/10 05:34:52;;;;;;;4.68;1.20;;;;;;;1.33;72.80;98382.25;5132831;27;20464;-54
2022/02/10 05:37:20;;;;;;;2.67;1.50;;;;;;;1.34;72.40;98373.69;5131956;27;20034;-53
2022/02/10 05:39:49;;;;;;;1.40;1.17;;;;;;;1.35;72.71;98373.69;5133007;27;20035;-52
2022/02/10 05:53:03;;;;;;;5.03;1.80;;;;;;;1.52;72.26;98368.22;5114270;27;20038;-52
2022/02/10 05:55:51;;;;;;;8.15;2.20;;;;;;;1.52;72.65;98358.81;5132842;27;20616;-52
2022/02/10 05:58:36;;;;;;;10.52;2.50;;;;;;;1.45;72.86;98352.16;5110850;27;20056;-51
2022/02/10 06:50:38;;;;;;;4.57;1.90;;;;;;;2.18;72.32;98324.13;5106366;27;20054;-51
2022/02/10 07:08:53;;;;;;;5.72;2.17;;;;;;;2.52;71.02;98310.47;5124144;27;20039;-49
2022/02/10 07:11:46;;;;;;;4.47;2.25;;;;;;;2.36;70.60;98282.66;5132728;27;20409;-51
2022/02/10 07:43:00;;;;;;;7.70;3.00;;;;;;;2.23;72.18;98300.09;5093624;28;20051;-50
2022/02/10 07:55:28;;;;;;;4.35;2.30;;;;;;;2.53;72.53;98281.38;5112030;27;20039;-53
2022/02/10 08:55:11;;;;;;;7.22;3.90;;;;;;;2.75;82.07;98268.03;5123342;27;20523;-48
2022/02/10 09:06:47;;;;;;;9.88;5.10;;;;;;;2.32;84.17;98268.25;5121910;27;20066;-50
2022/02/10 09:14:25;;;;;;;9.35;3.90;;;;;;;2.34;89.76;98254.53;5135728;27;20135;-51
2022/02/10 09:26:50;;;;;;;6.43;3.67;;;;;;;2.39;92.06;98262.94;5139430;27;20797;-50
2022/02/10 09:51:39;;;;;;;11.88;3.17;;;;;;;2.14;93.14;98254.16;5113797;27;20033;-48
2022/02/10 09:58:29;;;;;;;7.93;3.88;;;;;;;2.27;91.57;98249.56;5101950;27;20076;-51
2022/02/10 10:01:22;;;;;;;6.20;3.63;;;;;;;2.10;94.13;98247.41;5127664;27;20039;-50
2022/02/10 10:03:54;;;;;;;10.80;4.40;;;;;;;2.23;94.52;98240.28;5122526;27;20039;-54
2022/02/10 10:07:20;;;;;;;15.65;4.15;;;;;;;2.26;95.57;98255.56;5123665;27;20034;-48
2022/02/10 10:15:40;;;;;;;10.90;4.15;;;;;;;2.23;98.28;98250.53;5110377;27;20035;-47
2022/02/10 10:57:02;;;;;;;5.07;2.75;;;;;;;2.94;100.00;98269.22;5106242;27;20035;-52
2022/02/10 10:59:36;;;;;;;8.18;3.20;;;;;;;2.90;100.00;98263.34;5087610;28;20053;-51
2022/02/10 11:38:38;;;;;;;6.45;2.67;;;;;;;3.46;86.98;98276.34;5101091;28;20086;-52
2022/02/10 11:59:54;;;;;;;8.40;3.90;;;;;;;3.87;85.20;98311.13;5118359;27;20054;-48
2022/02/10 13:28:30;;;;;;;3.90;1.58;;;;;;;5.26;67.61;98405.38;5139108;27;20038;-52
2022/02/10 14:09:15;;;;;;;2.65;1.23;;;;;;;4.12;67.33;98445.81;5140372;27;20070;-55
2022/02/10 14:17:08;;;;;;;6.95;1.20;;;;;;;3.98;67.52;98450.47;5114025;27;20042;-53
2022/02/10 14:27:29;;;;;;;5.13;1.00;;;;;;;4.04;67.45;98454.59;5114320;27;20037;-51
2022/02/10 14:29:55;;;;;;;4.57;1.00;;;;;;;4.04;67.31;98468.31;5086223;27;20498;-53
2022/02/10 14:32:26;;;;;;;2.70;1.17;;;;;;;4.00;67.32;98465.88;5093631;28;20091;-52
2022/02/10 14:34:57;;;;;;;2.17;1.02;;;;;;;3.92;66.93;98463.53;5125507;27;20545;-49
2022/02/10 15:30:09;;;;;;;2.65;1.17;;;;;;;3.65;70.04;98515.66;5092099;28;20054;-52
2022/02/10 16:18:17;;;;;;;4.13;1.70;;;;;;;2.64;79.89;98537.69;5123478;27;20530;-46
2022/02/10 16:20:59;;;;;;;5.18;1.60;;;;;;;2.72;79.40;98540.91;5103762;27;20062;-49
2022/02/10 16:23:29;;;;;;;7.90;1.60;;;;;;;2.69;78.57;98543.56;5081172;28;20511;-49
2022/02/10 16:28:38;;;;;;;4.32;1.60;;;;;;;2.70;77.97;98549.53;5115398;27;20035;-46
2022/02/10 16:31:04;;;;;;;3.10;1.38;;;;;;;2.75;77.57;98555.41;5104856;27;20039;-45
2022/02/10 16:33:33;;;;;;;4.35;1.33;;;;;;;2.80;76.77;98559.56;5099710;27;20047;-42
2022/02/10 16:36:02;;;;;;;1.40;0.80;;;;;;;2.69;76.45;98546.13;5106048;27;20043;-44
2022/02/10 16:38:28;;;;;;;3.75;1.20;;;;;;;2.77;76.97;98563.94;5106483;27;20035;-46
2022/02/10 16:40:55;;;;;;;3.63;1.33;;;;;;;2.76;76.79;98559.69;5119347;27;20701;-44
2022/02/10 16:43:22;;;;;;;3.80;1.15;;;;;;;2.77;76.87;98553.69;5136656;27;20043;-44
2022/02/10 16:45:48;;;;;;;2.33;0.88;;;;;;;2.79;77.10;98563.00;5122290;27;20506;-50
2022/02/10 16:48:14;;;;;;;2.78;1.20;;;;;;;2.82;76.76;98567.25;5103721;27;20048;-44
2022/02/10 16:50:44;;;;;;;3.45;1.10;;;;;;;2.87;76.85;98565.44;5120923;27;20044;-45
2022/02/10 16:53:16;;;;;;;4.28;1.25;;;;;;;2.79;76.70;98559.59;5124135;27;20062;-50
2022/02/10 16:55:48;;;;;;;3.45;1.40;;;;;;;2.87;76.71;98573.13;5116161;27;20038;-49
2022/02/10 17:15:06;;;;;;;2.83;1.50;;;;;;;3.00;74.83;98569.41;5111061;28;20039;-54
2022/02/10 17:25:13;;;;;;;3.10;1.27;;;;;;;2.89;75.25;98574.78;5110366;28;20039;-49
2022/02/10 17:27:46;;;;;;;3.80;1.48;;;;;;;2.77;74.99;98559.66;5110189;27;20059;-48
2022/02/10 17:46:09;;;;;;;4.53;1.80;;;;;;;2.80;76.27;98586.97;5111554;28;20546;-48
2022/02/10 17:54:04;;;;;;;4.07;1.77;;;;;;;2.73;76.47;98585.38;5109414;27;20042;-48
2022/02/10 17:56:31;;;;;;;2.88;1.80;;;;;;;2.77;76.56;98584.47;5107035;28;20047;-49
2022/02/10 17:58:57;;;;;;;4.45;1.65;;;;;;;2.74;76.60;98584.50;5076031;28;20438;-49
2022/02/10 18:01:24;;;;;;;6.95;1.88;;;;;;;2.71;77.02;98582.88;5104392;28;20046;-49
2022/02/10 18:03:50;;;;;;;3.30;1.48;;;;;;;2.65;77.19;98585.56;5109625;28;20101;-49
2022/02/10 18:06:28;;;;;;;6.03;1.92;;;;;;;2.62;77.36;98585.59;5109073;28;20523;-48
2022/02/10 18:16:41;;;;;;;5.93;1.33;;;;;;;2.64;77.81;98596.69;5109688;28;20050;-50
2022/02/10 18:19:12;;;;;;;2.00;0.90;;;;;;;2.59;77.62;98593.38;5086198;28;20035;-49
2022/02/10 18:24:30;;;;;;;3.67;1.15;;;;;;;2.59;77.91;98587.41;5106707;28;20039;-46
2022/02/10 18:27:20;;;;;;;2.67;0.95;;;;;;;2.58;78.01;98583.97;5084485;28;20036;-47
2022/02/10 19:07:49;;;;;;;5.60;1.60;;;;;;;2.26;78.69;98586.31;5106009;28;20093;-46
2022/02/10 19:10:22;;;;;;;2.95;1.33;;;;;;;2.30;78.62;98585.41;5058685;28;20035;-48
2022/02/10 19:12:53;;;;;;;4.00;1.33;;;;;;;2.22;78.30;98564.19;5101775;28;20059;-47
2022/02/10 19:15:26;;;;;;;4.40;1.30;;;;;;;2.32;78.28;98581.06;5088031;28;20036;-47
2022/02/10 19:17:53;;;;;;;6.00;1.67;;;;;;;2.34;78.38;98592.16;5124487;28;22080;-49
2022/02/10 19:20:21;;;;;;;4.57;1.45;;;;;;;2.35;78.28;98591.28;5107550;28;20039;-48
2022/02/10 19:22:50;;;;;;;3.83;1.50;;;;;;;2.35;78.55;98599.00;5069676;28;20510;-47
2022/02/10 19:25:17;;;;;;;6.22;1.77;;;;;;;2.42;78.26;98585.16;5110882;28;20058;-47
2022/02/10 19:27:44;;;;;;;6.57;1.52;;;;;;;2.48;77.58;98591.03;5114130;28;20465;-48
2022/02/10 19:30:12;;;;;;;3.88;1.30;;;;;;;2.45;77.37;98592.81;5107834;27;20046;-49
2022/02/10 19:32:43;;;;;;;8.15;1.67;;;;;;;2.41;77.55;98598.84;5094955;28;20040;-47
2022/02/10 19:35:11;;;;;;;4.82;1.70;;;;;;;2.32;77.20;98581.06;5115515;27;20558;-49
2022/02/10 19:37:37;;;;;;;3.53;1.15;;;;;;;2.38;77.04;98593.78;5087456;28;20078;-47
2022/02/10 19:40:04;;;;;;;5.03;1.05;;;;;;;2.27;76.94;98578.59;5111319;28;20071;-49
2022/02/10 19:42:35;;;;;;;4.22;1.45;;;;;;;2.25;76.90;98588.03;5095203;28;20142;-49
2022/02/10 19:45:03;;;;;;;3.17;1.00;;;;;;;2.37;76.52;98594.66;5114631;28;20499;-46
2022/02/10 19:47:31;;;;;;;1.42;0.85;;;;;;;2.42;76.16;98608.25;5111964;28;20078;-49
2022/02/10 19:49:59;;;;;;;2.55;1.15;;;;;;;2.36;75.34;98601.50;5079329;28;20043;-54
2022/02/10 19:52:25;;;;;;;2.53;1.00;;;;;;;2.35;74.84;98604.13;5105538;28;20042;-49
2022/02/10 19:54:54;;;;;;;1.95;0.98;;;;;;;2.34;74.93;98607.56;5108893;28;20126;-49
2022/02/10 19:57:23;;;;;;;7.13;1.30;;;;;;;2.28;74.56;98600.81;5096861;28;20055;-47
2022/02/10 19:59:50;;;;;;;1.35;1.00;;;;;;;2.31;74.35;98610.16;5114357;28;20046;-49
2022/02/10 20:02:21;;;;;;;2.65;0.70;;;;;;;2.29;74.25;98602.50;5111260;28;20503;-47
2022/02/10 20:04:47;;;;;;;4.47;1.10;;;;;;;2.32;73.93;98604.16;5112013;28;20058;-49
2022/02/10 20:07:13;;;;;;;3.00;1.08;;;;;;;2.35;73.45;98609.25;5096625;28;20128;-47
2022/02/10 20:09:39;;;;;;;2.25;0.90;;;;;;;2.33;73.11;98613.53;5101355;28;20040;-48
2022/02/10 20:12:05;;;;;;;5.60;1.00;;;;;;;2.21;72.64;98595.81;5108551;28;20043;-47
2022/02/10 20:14:31;;;;;;;1.27;0.65;;;;;;;2.32;72.92;98612.69;5078862;28;20135;-49
2022/02/10 20:16:57;;;;;;;3.88;1.10;;;;;;;2.33;72.71;98609.25;5112564;28;20123;-48
2022/02/10 20:19:25;;;;;;;4.00;1.15;;;;;;;2.22;72.44;98592.38;5110683;28;20483;-47
2022/02/10 20:21:51;;;;;;;2.60;1.27;;;;;;;2.31;72.31;98602.47;5101721;28;20039;-50
2022/02/10 20:24:18;;;;;;;4.35;1.27;;;;;;;2.20;72.00;98582.16;5109378;28;20047;-49
2022/02/10 20:26:44;;;;;;;2.50;1.13;;;;;;;2.30;71.34;98603.34;5095773;28;20040;-47
2022/02/10 20:29:11;;;;;;;3.45;1.20;;;;;;;2.30;70.99;98606.78;5110936;28;20499;-46
2022/02/10 20:31:39;;;;;;;4.70;1.48;;;;;;;2.34;71.36;98610.97;5113364;27;20040;-47
2022/02/10 20:34:07;;;;;;;4.20;1.50;;;;;;;2.40;71.31;98602.31;5112096;28;20070;-48
2022/02/10 20:36:35;;;;;;;3.20;1.45;;;;;;;2.40;70.64;98602.31;5090256;28;20503;-49
2022/02/10 20:39:01;;;;;;;3.00;1.60;;;;;;;2.38;70.56;98599.78;5111449;28;20525;-47
2022/02/10 20:41:32;;;;;;;3.75;1.58;;;;;;;2.35;70.60;98601.56;5113510;28;20038;-47
2022/02/10 20:43:59;;;;;;;5.18;1.80;;;;;;;2.28;70.45;98594.84;5110284;28;20486;-47
2022/02/10 20:46:28;;;;;;;2.15;1.00;;;;;;;2.37;70.31;98607.47;5110706;28;20035;-50
2022/02/10 20:48:54;;;;;;;2.95;1.13;;;;;;;2.34;70.08;98603.28;5110561;28;20067;-50
2022/02/10 20:51:21;;;;;;;3.55;1.40;;;;;;;2.34;70.13;98604.97;5090948;28;20067;-49
2022/02/10 20:53:48;;;;;;;3.80;1.50;;;;;;;2.40;70.06;98605.72;5112431;28;20091;-47
2022/02/10 20:56:18;;;;;;;3.65;1.40;;;;;;;2.50;69.82;98602.09;5112120;28;20047;-49
2022/02/10 20:58:44;;;;;;;3.25;1.33;;;;;;;2.49;69.07;98597.84;5074332;28;20139;-47
2022/02/10 21:01:14;;;;;;;2.90;1.10;;;;;;;2.46;68.68;98605.59;5092261;28;20039;-52
2022/02/10 21:03:41;;;;;;;7.55;1.50;;;;;;;2.41;68.79;98592.00;5056752;28;20094;-50
2022/02/10 21:06:42;;;;;;;3.42;1.45;;;;;;;2.50;68.69;98599.53;5087823;28;20036;-48
2022/02/10 21:09:12;;;;;;;4.90;1.20;;;;;;;2.54;68.34;98595.19;5082941;28;20483;-54
2022/02/10 21:11:38;;;;;;;4.60;1.27;;;;;;;2.61;68.25;98607.03;5081438;28;20471;-53
2022/02/10 21:14:13;;;;;;;6.40;1.10;;;;;;;2.60;68.02;98609.63;5091964;28;20048;-53
2022/02/10 21:16:41;;;;;;;3.00;1.33;;;;;;;2.61;68.07;98601.91;5062784;28;20040;-52
2022/02/10 21:19:10;;;;;;;2.17;0.93;;;;;;;2.62;67.55;98602.75;5085762;28;20047;-49
2022/02/10 21:21:36;;;;;;;2.92;1.00;;;;;;;2.51;67.81;98608.09;5107205;28;20040;-55
2022/02/10 21:24:08;;;;;;;6.47;1.40;;;;;;;2.51;68.15;98606.34;5082561;28;20136;-51
2022/02/10 21:26:44;;;;;;;4.20;1.25;;;;;;;2.59;68.09;98608.75;5057674;28;20039;-51
2022/02/10 21:29:10;;;;;;;3.50;1.15;;;;;;;2.56;67.56;98617.34;5082558;28;20078;-52
2022/02/10 21:31:43;;;;;;;4.85;0.93;;;;;;;2.47;67.51;98612.41;5079806;28;20071;-50
2022/02/10 21:34:18;;;;;;;3.22;0.88;;;;;;;2.44;67.81;98614.19;5080484;28;20048;-53
2022/02/10 21:37:07;;;;;;;2.38;0.90;;;;;;;2.43;67.53;98597.13;5088036;28;20039;-51
2022/02/10 21:40:00;;;;;;;2.67;1.05;;;;;;;2.48;67.10;98610.69;5067592;28;20040;-53
2022/02/10 21:53:26;;;;;;;2.92;1.20;;;;;;;2.17;66.80;98594.19;5091148;28;20059;-50
2022/02/10 21:56:06;;;;;;;1.85;0.73;;;;;;;2.19;66.99;98602.72;5072238;28;20051;-54
2022/02/10 21:59:12;;;;;;;3.03;1.27;;;;;;;2.11;66.97;98582.31;5097121;28;20094;-53
2022/02/10 22:09:35;;;;;;;3.88;1.00;;;;;;;2.03;67.08;98582.47;5099697;28;20039;-52
2022/02/10 22:19:45;;;;;;;1.77;0.60;;;;;;;2.09;66.66;98591.78;5109206;28;20498;-55
2022/02/10 22:22:19;;;;;;;3.47;1.23;;;;;;;1.96;66.40;98574.91;5088453;28;20036;-53
2022/02/10 22:24:45;;;;;;;1.60;0.70;;;;;;;2.00;66.87;98592.75;5109194;27;20042;-51
2022/02/10 22:27:11;;;;;;;2.83;0.90;;;;;;;2.00;66.99;98586.78;5092382;27;20123;-52
2022/02/10 22:29:44;;;;;;;2.47;0.95;;;;;;;2.00;66.89;98592.75;5090407;28;20035;-52
2022/02/10 22:34:39;;;;;;;3.80;1.08;;;;;;;2.01;67.00;98568.84;5101506;28;20035;-53
2022/02/10 22:37:08;;;;;;;2.47;1.08;;;;;;;2.05;67.11;98585.00;5109680;28;20594;-49
2022/02/10 22:39:40;;;;;;;2.67;1.48;;;;;;;2.07;67.29;98585.81;5103869;28;20043;-50
2022/02/10 22:42:06;;;;;;;1.83;0.40;;;;;;;2.07;66.95;98593.50;5101433;28;20039;-55
2022/02/10 22:44:34;;;;;;;3.50;0.80;;;;;;;2.06;67.21;98572.16;5088682;28;20039;-54
2022/02/10 22:47:04;;;;;;;3.53;0.90;;;;;;;2.12;67.35;98578.91;5110135;28;20046;-55
2022/02/10 22:49:30;;;;;;;2.92;0.65;;;;;;;1.98;67.65;98568.91;5083978;28;20077;-46
2022/02/10 22:51:56;;;;;;;1.75;0.80;;;;;;;2.02;67.16;98587.63;5086829;28;20118;-44
2022/02/10 22:54:22;;;;;;;4.63;0.98;;;;;;;1.98;67.44;98580.88;5092203;28;20046;-44
2022/02/10 22:56:49;;;;;;;3.17;0.93;;;;;;;1.92;67.50;98578.41;5082505;28;20043;-45
2022/02/10 22:59:16;;;;;;;1.55;0.55;;;;;;;1.99;67.53;98585.13;5126149;27;20130;-46
2022/02/10 23:01:43;;;;;;;3.53;1.20;;;;;;;1.90;67.69;98573.31;5081104;28;20044;-46
2022/02/10 23:04:09;;;;;;;3.45;0.93;;;;;;;1.97;67.64;98587.72;5093336;28;20032;-45
2022/02/10 23:06:36;;;;;;;1.20;0.50;;;;;;;1.95;67.85;98581.75;5110558;28;20039;-46
2022/02/10 23:09:23;;;;;;;3.60;0.60;;;;;;;1.96;67.99;98583.44;5105530;28;20081;-46
2022/02/10 23:11:51;;;;;;;3.42;1.15;;;;;;;1.97;68.02;98584.31;5078278;28;20044;-47
2022/02/10 23:14:17;;;;;;;0.95;0.50;;;;;;;1.95;67.99;98588.59;5109400;28;20062;-45
2022/02/10 23:16:46;;;;;;;4.60;1.00;;;;;;;1.86;68.30;98569.09;5102619;28;20055;-45
2022/02/10 23:19:13;;;;;;;2.10;0.93;;;;;;;1.88;68.04;98571.66;5086912;28;20075;-46
2022/02/10 23:21:39;;;;;;;3.00;0.77;;;;;;;1.98;68.19;98586.00;5073542;28;20051;-48
2022/02/10 23:24:05;;;;;;;0.80;0.43;;;;;;;1.99;68.21;98583.38;5091857;28;20035;-45
2022/02/10 23:26:31;;;;;;;3.58;0.82;;;;;;;1.95;68.54;98575.78;5058478;28;20506;-47
2022/02/10 23:28:58;;;;;;;2.90;1.00;;;;;;;2.03;68.31;98581.63;5107225;28;20039;-45
2022/02/10 23:31:26;;;;;;;2.10;0.73;;;;;;;1.96;68.32;98569.78;5101846;28;20035;-45
2022/02/10 23:33:56;;;;;;;2.60;0.88;;;;;;;1.99;68.48;98574.88;5088323;28;20039;-45
2022/02/10 23:37:05;;;;;;;1.05;0.50;;;;;;;2.07;68.33;98576.41;5101914;28;20052;-44
2022/02/10 23:39:24;;;;;;;1.95;0.63;;;;;;;2.07;68.34;98575.56;5103748;28;20054;-47
2022/02/10 23:42:09;;;;;;;2.03;0.68;;;;;;;2.01;68.36;98578.22;5108178;28;20122;-45
2022/02/10 23:44:42;;;;;;;4.15;0.98;;;;;;;1.96;68.37;98578.31;5090404;28;20460;-47
2022/02/10 23:47:11;;;;;;;4.15;0.52;;;;;;;2.04;68.33;98579.03;5084717;28;20247;-44
2022/02/10 23:49:39;;;;;;;3.15;1.00;;;;;;;2.03;68.33;98573.94;5044364;28;20045;-46
2022/02/10 23:52:07;;;;;;;3.13;1.10;;;;;;;2.04;68.40;98581.59;5111335;28;20043;-46
2022/02/10 23:54:37;;;;;;;4.63;0.98;;;;;;;2.05;68.39;98579.88;5089432;28;20108;-47
2022/02/10 23:57:19;;;;;;;3.20;1.00;;;;;;;2.06;68.38;98574.72;5090821;28;20573;-45
